Latest Weather Observations for Thevenard

IDS60801

Issued at 8:01 am CST Thursday 27 July 2017 (issued every 30 minutes, with the page automatically refreshed every 10 minutes)

About weather observations | Map of weather stations | Latest weather observations for SA | Other Formats
Station Details ID: 018200 Name: THEVENARD WIND Lat: -32.18 Lon: 133.63 Height: 8.54 m
Data from the previous 72 hours. | See also: Recent months for locations in South Australia
Date/Time
CST
Temp
°C
App
Temp
°C
Dew
Point
°C
Rel
Hum
%
Delta-T
°C
Wind Press
QNH
hPa
Press
MSL
hPa
Rain since
9am
mm
Dir  Spd
km/h
Gust
km/h
Spd
kts
Gust
kts
27/08:00am - - - - - NNE 24 32 13 17 - - -
27/07:30am - - - - - NNE 33 43 18 23 - - -
27/07:00am - - - - - NNE 35 46 19 25 - - -
27/06:30am - - - - - NNE 33 39 18 21 - - -
27/06:00am - - - - - NNE 32 39 17 21 - - -
27/05:30am - - - - - NNE 35 41 19 22 - - -
27/05:00am - - - - - NNE 35 46 19 25 - - -
27/04:30am - - - - - NNE 28 33 15 18 - - -
27/04:00am - - - - - NNE 28 35 15 19 - - -
27/03:30am - - - - - NNE 24 32 13 17 - - -
27/03:00am - - - - - NNE 22 26 12 14 - - -
27/02:30am - - - - - NNE 24 28 13 15 - - -
27/02:00am - - - - - NNE 24 28 13 15 - - -
27/01:30am - - - - - NE 13 20 7 11 - - -
27/01:00am - - - - - NE 17 19 9 10 - - -
27/12:30am - - - - - NE 13 17 7 9 - - -
27/12:00am - - - - - NE 17 20 9 11 - - -
 
Date/Time
CST
Temp
°C
App
Temp
°C
Dew
Point
°C
Rel
Hum
%
Delta-T
°C
Wind Press
QNH
hPa
Press
MSL
hPa
Rain since
9am
mm
Dir  Spd
km/h
Gust
km/h
Spd
kts
Gust
kts
26/11:30pm - - - - - NE 13 15 7 8 - - -
26/11:00pm - - - - - NE 13 15 7 8 - - -
26/10:30pm - - - - - NE 11 15 6 8 - - -
26/10:00pm - - - - - NE 17 20 9 11 - - -
26/09:30pm - - - - - NE 17 22 9 12 - - -
26/09:00pm - - - - - NE 7 11 4 6 - - -
26/08:30pm - - - - - ENE 11 13 6 7 - - -
26/08:00pm - - - - - E 13 15 7 8 - - -
26/07:30pm - - - - - E 13 15 7 8 - - -
26/07:00pm - - - - - ESE 17 17 9 9 - - -
26/06:30pm - - - - - ESE 13 15 7 8 - - -
26/06:00pm - - - - - SE 15 17 8 9 - - -
26/05:30pm - - - - - SE 13 15 7 8 - - -
26/05:00pm - - - - - ESE 11 15 6 8 - - -
26/04:30pm - - - - - ESE 15 19 8 10 - - -
26/04:00pm - - - - - SE 15 19 8 10 - - -
26/03:30pm - - - - - SE 15 17 8 9 - - -
26/03:00pm - - - - - SE 15 17 8 9 - - -
26/02:30pm - - - - - SE 11 11 6 6 - - -
26/02:00pm - - - - - SE 9 11 5 6 - - -
26/01:30pm - - - - - SSE 7 7 4 4 - - -
26/01:00pm - - - - - S 7 7 4 4 - - -
26/12:30pm - - - - - SW 2 4 1 2 - - -
26/12:00pm - - - - - SSW 2 2 1 1 - - -
26/11:30am - - - - - NNW 4 4 2 2 - - -
26/11:00am - - - - - NNW 6 7 3 4 - - -
26/10:30am - - - - - N 9 11 5 6 - - -
26/10:00am - - - - - NNE 9 11 5 6 - - -
26/09:30am - - - - - NNE 11 13 6 7 - - -
26/09:00am - - - - - NNE 13 15 7 8 - - -
26/08:30am - - - - - N 17 19 9 10 - - -
26/08:00am - - - - - N 11 13 6 7 - - -
26/07:30am - - - - - N 11 17 6 9 - - -
26/07:00am - - - - - N 13 15 7 8 - - -
26/06:30am - - - - - NNE 13 17 7 9 - - -
26/06:00am - - - - - N 9 11 5 6 - - -
26/05:30am - - - - - N 9 9 5 5 - - -
26/05:00am - - - - - N 11 13 6 7 - - -
26/04:30am - - - - - N 13 13 7 7 - - -
26/04:00am - - - - - N 9 11 5 6 - - -
26/03:30am - - - - - N 7 9 4 5 - - -
26/03:00am - - - - - N 7 9 4 5 - - -
26/02:30am - - - - - N 9 9 5 5 - - -
26/02:00am - - - - - N 7 9 4 5 - - -
26/01:30am - - - - - N 6 6 3 3 - - -
26/01:00am - - - - - N 7 9 4 5 - - -
26/12:30am - - - - - N 9 11 5 6 - - -
26/12:00am - - - - - NW 6 6 3 3 - - -
 
Date/Time
CST
Temp
°C
App
Temp
°C
Dew
Point
°C
Rel
Hum
%
Delta-T
°C
Wind Press
QNH
hPa
Press
MSL
hPa
Rain since
9am
mm
Dir  Spd
km/h
Gust
km/h
Spd
kts
Gust
kts
25/11:30pm - - - - - NW 6 6 3 3 - - -
25/11:00pm - - - - - N 9 9 5 5 - - -
25/10:30pm - - - - - N 6 7 3 4 - - -
25/10:00pm - - - - - WNW 2 6 1 3 - - -
25/09:30pm - - - - - W 4 6 2 3 - - -
25/09:00pm - - - - - W 2 2 1 1 - - -
25/08:30pm - - - - - SSW 6 6 3 3 - - -
25/08:00pm - - - - - WSW 6 6 3 3 - - -
25/07:30pm - - - - - WSW 7 7 4 4 - - -
25/07:00pm - - - - - SW 9 9 5 5 - - -
25/06:30pm - - - - - SW 9 11 5 6 - - -
25/06:00pm - - - - - SW 11 11 6 6 - - -
25/05:30pm - - - - - SSW 13 15 7 8 - - -
25/05:00pm - - - - - SW 7 9 4 5 - - -
25/04:30pm - - - - - SW 7 9 4 5 - - -
25/04:00pm - - - - - SW 6 7 3 4 - - -
25/03:30pm - - - - - WSW 6 7 3 4 - - -
25/03:00pm - - - - - SW 9 11 5 6 - - -
25/02:30pm - - - - - WSW 9 9 5 5 - - -
25/02:00pm - - - - - SW 7 9 4 5 - - -
25/01:30pm - - - - - SW 9 11 5 6 - - -
25/01:00pm - - - - - SSW 13 13 7 7 - - -
25/12:30pm - - - - - WSW 7 9 4 5 - - -
25/12:00pm - - - - - WNW 4 4 2 2 - - -
25/11:30am - - - - - N 4 6 2 3 - - -
25/11:00am - - - - - NNW 9 11 5 6 - - -
25/10:30am - - - - - NE 11 11 6 6 - - -
25/10:00am - - - - - NE 6 7 3 4 - - -
25/09:30am - - - - - N 7 9 4 5 - - -
25/09:00am - - - - - NNW 17 22 9 12 - - -
25/08:30am - - - - - NE 2 6 1 3 - - -
25/08:00am - - - - - N 15 19 8 10 - - -
25/07:30am - - - - - N 11 11 6 6 - - -
25/07:00am - - - - - NNE 4 4 2 2 - - -
25/06:30am - - - - - CALM 0 2 0 1 - - -
25/06:00am - - - - - E 4 6 2 3 - - -
25/05:30am - - - - - WSW 13 17 7 9 - - -
25/05:00am - - - - - NE 6 9 3 5 - - -
25/04:30am - - - - - N 4 6 2 3 - - -
25/04:00am - - - - - NW 6 7 3 4 - - -
25/03:30am - - - - - NNE 6 7 3 4 - - -
25/03:00am - - - - - NNW 11 11 6 6 - - -
25/02:30am - - - - - N 7 9 4 5 - - -
25/02:00am - - - - - NNE 7 9 4 5 - - -
25/01:30am - - - - - NNE 7 9 4 5 - - -
25/01:00am - - - - - N 7 7 4 4 - - -
25/12:30am - - - - - N 4 4 2 2 - - -
25/12:00am - - - - - WSW 4 6 2 3 - - -
 
Date/Time
CST
Temp
°C
App
Temp
°C
Dew
Point
°C
Rel
Hum
%
Delta-T
°C
Wind Press
QNH
hPa
Press
MSL
hPa
Rain since
9am
mm
Dir  Spd
km/h
Gust
km/h
Spd
kts
Gust
kts
24/11:30pm - - - - - W 7 9 4 5 - - -
24/11:00pm - - - - - NW 7 9 4 5 - - -
24/10:30pm - - - - - N 7 11 4 6 - - -
24/10:00pm - - - - - NNE 11 11 6 6 - - -
24/09:30pm - - - - - N 9 11 5 6 - - -
24/09:00pm - - - - - N 9 11 5 6 - - -
24/08:30pm - - - - - NNW 9 11 5 6 - - -
24/08:00pm - - - - - NE 6 6 3 3 - - -
24/07:30pm - - - - - NE 6 7 3 4 - - -
24/07:00pm - - - - - NE 4 6 2 3 - - -
24/06:30pm - - - - - S 6 7 3 4 - - -
24/06:00pm - - - - - S 7 9 4 5 - - -
24/05:30pm - - - - - SSW 6 9 3 5 - - -
24/05:00pm - - - - - S 4 6 2 3 - - -
24/04:30pm - - - - - SW 4 6 2 3 - - -
24/04:00pm - - - - - SSE 4 7 2 4 - - -
24/03:30pm - - - - - ESE 6 6 3 3 - - -
24/03:00pm - - - - - SE 2 4 1 2 - - -
24/02:30pm - - - - - NNE 7 11 4 6 - - -
24/02:00pm - - - - - NNE 11 13 6 7 - - -
24/01:30pm - - - - - N 11 15 6 8 - - -
24/01:00pm - - - - - N 15 19 8 10 - - -
24/12:30pm - - - - - NNE 13 17 7 9 - - -
24/12:00pm - - - - - W 6 11 3 6 - - -
24/11:30am - - - - - N 13 17 7 9 - - -
24/11:00am - - - - - NNE 19 22 10 12 - - -
24/10:30am - - - - - NNE 28 33 15 18 - - -
24/10:00am - - - - - NNE 19 22 10 12 - - -
24/09:30am - - - - - NNE 19 26 10 14 - - -
24/09:00am - - - - - NE 9 13 5 7 - - -
24/08:30am - - - - - NE 11 15 6 8 - - -

Other Formats:

Comma delimited format used in spreadsheet applications
http://www.bom.gov.au/fwo/IDS60801/IDS60801.95653.axf

JavaScript Object Notation format (JSON) in row-major order
http://www.bom.gov.au/fwo/IDS60801/IDS60801.95653.json